Baltimore/Washington International Thurgood Marshal Airport
KBWI : now visible

Airfield :











YOU CAN JOIN US ON...

 
LOGIN :

Register | Disclaimer

   EN    FR    IT 

 









Legend :    VFR   Marginal VFR   IFR   Intensive IFR   Very Intensive IFR
Visi :
Ceiling :
>= 8 km
>= 3000ft
5 to 8 km
1000 to 3000 ft
1500m to 5 km
500 to 1000 ft
800 to 1500m
200 to 500 ft
< 800m
< 200 ft
Symbols :   Thunderstorms  Fog  Heavy snow  Heavy precipitations  Wind > 20 kt






- Airport Elevation : 146 ft
- IATA code : BWI


KBWI - Baltimore/Washington International Thurgood Marshal

CURRENT METAR :
  • 041303Z 32004KT 2SM RA BR FEW009 OVC013 09/07 A3003 RMK AO2 P0005 T00890072

EXPIRED METARs :
  • 041254Z VRB04KT 3SM RA BR BKN018 OVC020 09/07 A3003 RMK AO2 SLP169 P0006 T00890072
  • 041154Z 35006KT 10SM -RA FEW018 BKN025 OVC050 09/07 A3004 RMK AO2 SLP171 P0016 60027 70061 T00890067 10094 20083 56009
  • 041054Z 36009G19KT 4SM RA BR OVC028 09/07 A3004 RMK AO2 RAB04 SLP173 P0006 T00890067

TAF KBWI
Valid from the 04 at 12:00 until the 05 at 18:00 UTC


041136Z 0412/0518 36010G18KT 5SM -RA BR OVC025
FM041400 36011G19KT 4SM -RA BR OVC010
FM041600 35014G24KT 4SM -RA BR OVC008
FM050000 36010G18KT 5SM -RA BR OVC008
FM050600 36008KT 5SM -SHRA BR OVC008
FM051500 33009KT P6SM OVC010
KZDC FIR / North America



MET'MAP, your aeronautical weather chart ! - Copyright ORBIFLY December 2007 - Disclaimer

ORBIFLY MET'MAP TEAM :

Programming & Development : Alexandra Zaïnal
Original concept : Baudouin d'Aumeries
Technical & hardware support : Manuel Goepfert
Assistance : Marc-Olivier Méhu




SOURCES & CREDITS :

   NOAA       Earth
Advisory